CDT,Max TemperatureF,Mean TemperatureF,Min TemperatureF,Max Dew PointF,MeanDew PointF,Min DewpointF,Max Humidity, Mean Humidity, Min Humidity, Max Sea Level PressureIn, Mean Sea Level PressureIn, Min Sea Level PressureIn, Max VisibilityMiles, Mean VisibilityMiles, Min VisibilityMiles, Max Wind SpeedMPH, Mean Wind SpeedMPH, Max Gust SpeedMPH,PrecipitationIn, CloudCover, Events, WindDirDegrees
2012-6-1,77,62,46,52,47,39,93,68,43,30.05,29.96,29.82,10,9,3,17,6,22,0.12,4,Rain,171
2012-6-2,89,66,42,55,47,41,93,59,24,29.92,29.83,29.67,10,10,10,15,5,20,0.00,0,,153
2012-6-3,94,76,58,59,54,51,80,52,24,29.88,29.74,29.69,10,10,10,13,6,18,0.00,0,,42
2012-6-4,90,72,53,58,55,51,93,63,32,30.02,29.92,29.86,10,10,10,18,9,23,0.00,0,,113
2012-6-5,93,74,55,57,53,49,86,55,23,29.94,29.86,29.76,10,10,9,20,10,25,0.00,0,,128
2012-6-6,87,75,63,59,53,50,67,49,31,29.93,29.86,29.81,10,10,10,20,11,24,0.00,0,,140
2012-6-7,86,71,56,58,55,52,86,61,35,30.05,29.96,29.88,10,10,7,22,11,30,0.00,2,,155
2012-6-8,91,78,64,60,55,50,63,49,34,29.93,29.81,29.66,10,10,10,24,14,32,0.00,0,,166
2012-6-9,98,82,65,62,57,50,68,46,24,29.67,29.49,29.34,10,10,10,26,15,39,0.00,0,,157
2012-6-10,84,64,44,62,47,26,73,44,14,29.90,29.64,29.37,10,10,8,35,14,41,0.00,3,,343
2012-6-11,84,64,43,45,40,32,82,52,22,30.14,30.03,29.89,10,10,10,22,10,28,0.00,0,,315
2012-6-12,82,64,46,56,49,42,86,60,33,30.19,30.07,29.95,10,9,2,29,12,39,0.07,2,Rain-Thunderstorm,113
2012-6-13,96,79,61,59,54,47,72,46,20,29.97,29.78,29.59,10,10,10,23,12,31,0.00,0,,170
2012-6-14,87,78,69,65,59,50,73,57,40,29.88,29.72,29.62,10,10,10,22,12,32,0.00,2,,106
2012-6-15,91,75,59,63,54,47,84,54,24,30.02,29.89,29.80,10,10,0,25,8,33,0.00,0,,145
2012-6-16,86,74,62,63,54,42,87,55,23,30.05,29.97,29.88,10,10,7,23,8,30,T,2,Thunderstorm,41
2012-6-17,103,82,60,62,54,44,87,51,14,29.96,29.65,29.41,10,10,10,22,10,29,0.00,0,,175
2012-6-18,106,83,59,59,51,43,52,32,12,29.51,29.43,29.38,10,10,10,24,9,36,0.00,0,,198
2012-6-19,101,88,74,65,61,57,68,47,26,29.59,29.45,29.39,10,10,10,30,14,43,0.00,0,,174
2012-6-20,81,68,54,63,52,43,78,54,30,30.12,29.82,29.48,10,10,10,39,15,49,0.02,5,Rain,15
2012-6-21,85,65,44,49,44,41,89,56,23,30.20,30.11,30.01,10,10,9,13,4,15,0.00,0,,122
2012-6-22,92,74,55,64,54,47,78,52,26,30.03,29.87,29.66,10,10,2,32,17,44,0.66,2,Rain-Thunderstorm,145
2012-6-23,91,79,67,70,63,59,97,69,41,29.84,29.71,29.60,10,10,9,23,12,35,0.00,2,Rain-Thunderstorm,117
2012-6-24,95,80,65,71,66,64,100,70,39,29.99,29.84,29.74,10,5,0,20,10,24,0.00,4,Fog,86
2012-6-25,91,81,71,73,71,69,94,75,56,30.03,29.90,29.76,10,6,4,25,15,32,0.00,4,,102
2012-6-26,107,89,70,72,62,46,97,56,14,29.86,29.65,29.51,10,8,2,18,9,26,0.00,0,,151
2012-6-27,99,82,64,63,55,43,57,42,27,30.01,29.71,29.55,10,10,10,21,9,24,T,0,Rain-Thunderstorm,4
2012-6-28,98,79,59,73,62,57,78,53,27,30.02,29.88,29.79,10,10,9,16,7,20,0.00,1,Rain-Thunderstorm,130
2012-6-29,99,79,59,70,61,52,87,57,26,29.94,29.79,29.70,10,10,7,45,8,64,T,0,,130
2012-6-30,98,82,65,72,68,54,93,59,24,29.92,29.82,29.71,10,5,0,28,9,36,0.00,1,Fog,111